General Lavalle, Argentina
Current Conditions -  °F | °C
As of 1:00 AM on Sunday 23 Nov 2014 (Local Time) from SAZM Reporting Station
Clear Clear  
Wind Chill: 13°   Ceiling: Unl
Heat Index: 13°   Visibility: 6mi
Dew Point: 11°   Wind: 6mph
Humidity: 88%   Direction: 320°NW
Pressure: 29.74"   Gusts: NA
Location:  36.4°S, 56.97°W
Report Text: SAZM 230400Z 32005KT CAVOK 13/11 Q1007
Loading
Personal Weather Stations






























Interactive Weather Map New forecast layout! Learn more

10-Day Weather Forecast

Advertisements
Track Severe Weather on mobile